sensor_id;sensor_type;location;lat;lon;timestamp;P1;durP1;ratioP1;P2;durP2;ratioP2
27744;SDS011;61387;48.112;8.616;2023-02-28T00:02:20;6.13;;;4.07;;
27744;SDS011;61387;48.112;8.616;2023-02-28T00:04:46;7.17;;;4.10;;
27744;SDS011;61387;48.112;8.616;2023-02-28T00:07:25;6.17;;;3.87;;
27744;SDS011;61387;48.112;8.616;2023-02-28T00:09:52;6.10;;;3.60;;
27744;SDS011;61387;48.112;8.616;2023-02-28T00:12:18;8.07;;;4.20;;
27744;SDS011;61387;48.112;8.616;2023-02-28T00:14:43;6.70;;;3.50;;
27744;SDS011;61387;48.112;8.616;2023-02-28T00:17:09;7.00;;;4.33;;
27744;SDS011;61387;48.112;8.616;2023-02-28T00:19:35;8.83;;;4.33;;
27744;SDS011;61387;48.112;8.616;2023-02-28T00:22:01;8.90;;;4.27;;
27744;SDS011;61387;48.112;8.616;2023-02-28T00:24:27;7.97;;;3.93;;
27744;SDS011;61387;48.112;8.616;2023-02-28T00:26:52;6.93;;;3.80;;
27744;SDS011;61387;48.112;8.616;2023-02-28T00:29:18;8.07;;;4.77;;
27744;SDS011;61387;48.112;8.616;2023-02-28T00:31:44;7.83;;;4.20;;
27744;SDS011;61387;48.112;8.616;2023-02-28T00:34:10;8.07;;;4.10;;
27744;SDS011;61387;48.112;8.616;2023-02-28T00:36:36;6.70;;;4.00;;
27744;SDS011;61387;48.112;8.616;2023-02-28T00:39:02;7.10;;;4.10;;
27744;SDS011;61387;48.112;8.616;2023-02-28T00:41:28;7.83;;;3.97;;
27744;SDS011;61387;48.112;8.616;2023-02-28T00:43:54;8.33;;;4.43;;
27744;SDS011;61387;48.112;8.616;2023-02-28T00:46:20;6.83;;;3.80;;
27744;SDS011;61387;48.112;8.616;2023-02-28T00:48:46;8.13;;;4.37;;
27744;SDS011;61387;48.112;8.616;2023-02-28T00:51:12;9.13;;;4.13;;
27744;SDS011;61387;48.112;8.616;2023-02-28T00:53:38;6.17;;;4.00;;
27744;SDS011;61387;48.112;8.616;2023-02-28T00:56:04;6.03;;;3.77;;
27744;SDS011;61387;48.112;8.616;2023-02-28T00:58:30;5.13;;;3.70;;
27744;SDS011;61387;48.112;8.616;2023-02-28T01:00:56;6.30;;;3.90;;
27744;SDS011;61387;48.112;8.616;2023-02-28T01:03:22;5.40;;;3.57;;
27744;SDS011;61387;48.112;8.616;2023-02-28T01:05:48;7.40;;;4.37;;
27744;SDS011;61387;48.112;8.616;2023-02-28T01:08:14;7.70;;;4.37;;
27744;SDS011;61387;48.112;8.616;2023-02-28T01:10:40;6.23;;;4.00;;
27744;SDS011;61387;48.112;8.616;2023-02-28T01:13:06;6.57;;;4.00;;
27744;SDS011;61387;48.112;8.616;2023-02-28T01:15:32;6.83;;;3.77;;
27744;SDS011;61387;48.112;8.616;2023-02-28T01:17:58;9.17;;;3.63;;
27744;SDS011;61387;48.112;8.616;2023-02-28T01:20:24;5.30;;;3.53;;
27744;SDS011;61387;48.112;8.616;2023-02-28T01:22:50;5.50;;;3.50;;
27744;SDS011;61387;48.112;8.616;2023-02-28T01:25:16;6.53;;;4.03;;
27744;SDS011;61387;48.112;8.616;2023-02-28T01:27:42;8.47;;;3.90;;
27744;SDS011;61387;48.112;8.616;2023-02-28T01:30:08;9.33;;;4.13;;
27744;SDS011;61387;48.112;8.616;2023-02-28T01:32:36;7.77;;;4.17;;
27744;SDS011;61387;48.112;8.616;2023-02-28T01:35:02;6.70;;;4.40;;
27744;SDS011;61387;48.112;8.616;2023-02-28T01:37:28;6.77;;;3.93;;
27744;SDS011;61387;48.112;8.616;2023-02-28T01:39:54;6.80;;;4.40;;
27744;SDS011;61387;48.112;8.616;2023-02-28T01:42:20;7.93;;;4.17;;
27744;SDS011;61387;48.112;8.616;2023-02-28T01:45:04;7.73;;;4.20;;
27744;SDS011;61387;48.112;8.616;2023-02-28T01:47:41;6.60;;;4.10;;
27744;SDS011;61387;48.112;8.616;2023-02-28T01:50:09;5.67;;;3.73;;
27744;SDS011;61387;48.112;8.616;2023-02-28T01:52:41;6.17;;;3.87;;
27744;SDS011;61387;48.112;8.616;2023-02-28T01:55:07;6.00;;;3.90;;
27744;SDS011;61387;48.112;8.616;2023-02-28T01:57:36;9.13;;;4.57;;
27744;SDS011;61387;48.112;8.616;2023-02-28T02:00:25;7.37;;;4.50;;
27744;SDS011;61387;48.112;8.616;2023-02-28T02:02:56;8.13;;;3.90;;
27744;SDS011;61387;48.112;8.616;2023-02-28T02:05:25;8.07;;;4.93;;
27744;SDS011;61387;48.112;8.616;2023-02-28T02:07:57;7.63;;;4.20;;
27744;SDS011;61387;48.112;8.616;2023-02-28T02:10:29;7.23;;;4.33;;
27744;SDS011;61387;48.112;8.616;2023-02-28T02:13:14;8.33;;;4.27;;
27744;SDS011;61387;48.112;8.616;2023-02-28T02:18:51;8.63;;;4.37;;
27744;SDS011;61387;48.112;8.616;2023-02-28T02:35:24;7.73;;;4.03;;
27744;SDS011;61387;48.112;8.616;2023-02-28T02:37:58;7.17;;;4.23;;
27744;SDS011;61387;48.112;8.616;2023-02-28T02:40:47;7.40;;;4.40;;
27744;SDS011;61387;48.112;8.616;2023-02-28T02:43:36;7.40;;;4.23;;
27744;SDS011;61387;48.112;8.616;2023-02-28T02:46:10;7.63;;;4.60;;
27744;SDS011;61387;48.112;8.616;2023-02-28T02:48:40;10.57;;;4.77;;
27744;SDS011;61387;48.112;8.616;2023-02-28T02:51:10;9.37;;;4.53;;
27744;SDS011;61387;48.112;8.616;2023-02-28T02:53:47;6.87;;;4.37;;
27744;SDS011;61387;48.112;8.616;2023-02-28T02:56:27;6.60;;;4.20;;
27744;SDS011;61387;48.112;8.616;2023-02-28T02:58:57;7.60;;;4.77;;
27744;SDS011;61387;48.112;8.616;2023-02-28T03:01:27;8.00;;;4.47;;
27744;SDS011;61387;48.112;8.616;2023-02-28T03:04:06;7.77;;;4.70;;
27744;SDS011;61387;48.112;8.616;2023-02-28T03:06:35;7.10;;;4.20;;
27744;SDS011;61387;48.112;8.616;2023-02-28T03:09:00;8.45;;;5.07;;
27744;SDS011;61387;48.112;8.616;2023-02-28T03:11:26;9.30;;;4.40;;
27744;SDS011;61387;48.112;8.616;2023-02-28T03:14:03;10.30;;;4.60;;
27744;SDS011;61387;48.112;8.616;2023-02-28T03:19:44;8.30;;;4.40;;
27744;SDS011;61387;48.112;8.616;2023-02-28T03:25:05;8.50;;;4.50;;
27744;SDS011;61387;48.112;8.616;2023-02-28T03:30:24;7.57;;;4.90;;
27744;SDS011;61387;48.112;8.616;2023-02-28T03:33:02;7.80;;;4.57;;
27744;SDS011;61387;48.112;8.616;2023-02-28T03:35:48;9.97;;;5.20;;
27744;SDS011;61387;48.112;8.616;2023-02-28T03:38:27;10.00;;;4.93;;
27744;SDS011;61387;48.112;8.616;2023-02-28T03:41:14;9.40;;;5.00;;
27744;SDS011;61387;48.112;8.616;2023-02-28T03:43:43;9.50;;;5.13;;
27744;SDS011;61387;48.112;8.616;2023-02-28T03:46:15;8.53;;;5.23;;
27744;SDS011;61387;48.112;8.616;2023-02-28T03:48:48;10.57;;;5.17;;
27744;SDS011;61387;48.112;8.616;2023-02-28T03:51:20;10.37;;;5.67;;
27744;SDS011;61387;48.112;8.616;2023-02-28T03:53:53;8.67;;;5.00;;
27744;SDS011;61387;48.112;8.616;2023-02-28T03:56:24;7.53;;;4.90;;
27744;SDS011;61387;48.112;8.616;2023-02-28T03:59:37;9.67;;;5.00;;
27744;SDS011;61387;48.112;8.616;2023-02-28T04:02:06;8.47;;;5.53;;
27744;SDS011;61387;48.112;8.616;2023-02-28T04:04:32;8.33;;;4.83;;
27744;SDS011;61387;48.112;8.616;2023-02-28T04:07:06;11.10;;;5.67;;
27744;SDS011;61387;48.112;8.616;2023-02-28T04:09:33;8.90;;;5.07;;
27744;SDS011;61387;48.112;8.616;2023-02-28T04:12:00;8.83;;;4.93;;
27744;SDS011;61387;48.112;8.616;2023-02-28T04:14:25;8.90;;;5.47;;
27744;SDS011;61387;48.112;8.616;2023-02-28T04:16:51;11.43;;;6.10;;
27744;SDS011;61387;48.112;8.616;2023-02-28T04:19:17;10.20;;;5.47;;
27744;SDS011;61387;48.112;8.616;2023-02-28T04:21:44;11.20;;;4.97;;
27744;SDS011;61387;48.112;8.616;2023-02-28T04:24:15;9.37;;;5.60;;
27744;SDS011;61387;48.112;8.616;2023-02-28T04:26:44;12.53;;;5.97;;
27744;SDS011;61387;48.112;8.616;2023-02-28T04:29:12;11.03;;;5.57;;
27744;SDS011;61387;48.112;8.616;2023-02-28T04:31:42;9.23;;;4.80;;
27744;SDS011;61387;48.112;8.616;2023-02-28T04:34:08;10.60;;;5.50;;
27744;SDS011;61387;48.112;8.616;2023-02-28T04:36:34;11.43;;;6.00;;
27744;SDS011;61387;48.112;8.616;2023-02-28T04:39:00;9.63;;;5.33;;
27744;SDS011;61387;48.112;8.616;2023-02-28T04:41:26;9.10;;;5.60;;
27744;SDS011;61387;48.112;8.616;2023-02-28T04:43:52;8.63;;;5.43;;
27744;SDS011;61387;48.112;8.616;2023-02-28T04:46:19;10.37;;;5.57;;
27744;SDS011;61387;48.112;8.616;2023-02-28T04:48:45;10.90;;;5.63;;
27744;SDS011;61387;48.112;8.616;2023-02-28T04:51:11;10.73;;;5.93;;
27744;SDS011;61387;48.112;8.616;2023-02-28T04:53:39;10.87;;;6.03;;
27744;SDS011;61387;48.112;8.616;2023-02-28T04:56:06;8.03;;;5.13;;
27744;SDS011;61387;48.112;8.616;2023-02-28T04:58:33;9.37;;;5.73;;
27744;SDS011;61387;48.112;8.616;2023-02-28T05:01:13;8.97;;;5.57;;
27744;SDS011;61387;48.112;8.616;2023-02-28T05:03:42;10.40;;;5.57;;
27744;SDS011;61387;48.112;8.616;2023-02-28T05:06:08;10.73;;;5.37;;
27744;SDS011;61387;48.112;8.616;2023-02-28T05:08:34;10.00;;;5.43;;
27744;SDS011;61387;48.112;8.616;2023-02-28T05:11:01;11.40;;;4.80;;
27744;SDS011;61387;48.112;8.616;2023-02-28T05:13:27;10.37;;;5.40;;
27744;SDS011;61387;48.112;8.616;2023-02-28T05:15:53;9.73;;;5.50;;
27744;SDS011;61387;48.112;8.616;2023-02-28T05:18:18;8.97;;;5.27;;
27744;SDS011;61387;48.112;8.616;2023-02-28T05:20:44;10.17;;;5.10;;
27744;SDS011;61387;48.112;8.616;2023-02-28T05:23:11;10.80;;;6.10;;
27744;SDS011;61387;48.112;8.616;2023-02-28T05:25:38;10.57;;;5.77;;
27744;SDS011;61387;48.112;8.616;2023-02-28T05:28:04;8.47;;;5.13;;
27744;SDS011;61387;48.112;8.616;2023-02-28T05:30:30;12.20;;;5.67;;
27744;SDS011;61387;48.112;8.616;2023-02-28T05:32:56;9.63;;;5.37;;
27744;SDS011;61387;48.112;8.616;2023-02-28T05:35:23;9.73;;;6.30;;
27744;SDS011;61387;48.112;8.616;2023-02-28T05:37:51;11.23;;;6.40;;
27744;SDS011;61387;48.112;8.616;2023-02-28T05:40:17;10.60;;;6.00;;
27744;SDS011;61387;48.112;8.616;2023-02-28T05:42:45;11.17;;;5.97;;
27744;SDS011;61387;48.112;8.616;2023-02-28T05:45:11;11.23;;;6.10;;
27744;SDS011;61387;48.112;8.616;2023-02-28T05:47:37;11.77;;;5.80;;
27744;SDS011;61387;48.112;8.616;2023-02-28T05:50:03;11.50;;;5.80;;
27744;SDS011;61387;48.112;8.616;2023-02-28T05:52:29;10.00;;;5.70;;
27744;SDS011;61387;48.112;8.616;2023-02-28T05:54:55;13.03;;;5.93;;
27744;SDS011;61387;48.112;8.616;2023-02-28T05:57:22;10.37;;;5.60;;
27744;SDS011;61387;48.112;8.616;2023-02-28T05:59:48;13.03;;;6.30;;
27744;SDS011;61387;48.112;8.616;2023-02-28T06:02:14;11.93;;;6.20;;
27744;SDS011;61387;48.112;8.616;2023-02-28T06:04:41;10.07;;;6.07;;
27744;SDS011;61387;48.112;8.616;2023-02-28T06:07:08;9.87;;;5.80;;
27744;SDS011;61387;48.112;8.616;2023-02-28T06:09:34;11.63;;;6.73;;
27744;SDS011;61387;48.112;8.616;2023-02-28T06:12:00;13.10;;;6.57;;
27744;SDS011;61387;48.112;8.616;2023-02-28T06:14:32;13.53;;;6.77;;
27744;SDS011;61387;48.112;8.616;2023-02-28T06:16:58;11.07;;;6.27;;
27744;SDS011;61387;48.112;8.616;2023-02-28T06:19:25;12.50;;;6.97;;
27744;SDS011;61387;48.112;8.616;2023-02-28T06:21:52;12.97;;;7.33;;
27744;SDS011;61387;48.112;8.616;2023-02-28T06:24:18;10.43;;;6.27;;
27744;SDS011;61387;48.112;8.616;2023-02-28T06:26:45;12.90;;;7.60;;
27744;SDS011;61387;48.112;8.616;2023-02-28T06:29:11;12.37;;;7.13;;
27744;SDS011;61387;48.112;8.616;2023-02-28T06:31:37;15.97;;;7.67;;
27744;SDS011;61387;48.112;8.616;2023-02-28T06:34:03;12.10;;;6.83;;
27744;SDS011;61387;48.112;8.616;2023-02-28T06:36:29;12.10;;;7.07;;
27744;SDS011;61387;48.112;8.616;2023-02-28T06:38:56;14.03;;;7.33;;
27744;SDS011;61387;48.112;8.616;2023-02-28T06:41:23;13.97;;;7.13;;
27744;SDS011;61387;48.112;8.616;2023-02-28T06:43:50;13.83;;;7.43;;
27744;SDS011;61387;48.112;8.616;2023-02-28T06:46:16;13.27;;;7.10;;
27744;SDS011;61387;48.112;8.616;2023-02-28T06:48:43;16.47;;;8.13;;
27744;SDS011;61387;48.112;8.616;2023-02-28T06:51:10;11.93;;;6.73;;
27744;SDS011;61387;48.112;8.616;2023-02-28T06:53:39;12.27;;;7.10;;
27744;SDS011;61387;48.112;8.616;2023-02-28T06:56:05;12.70;;;6.80;;
27744;SDS011;61387;48.112;8.616;2023-02-28T06:58:32;14.13;;;7.07;;
27744;SDS011;61387;48.112;8.616;2023-02-28T07:00:58;13.57;;;7.80;;
27744;SDS011;61387;48.112;8.616;2023-02-28T07:03:24;11.77;;;7.93;;
27744;SDS011;61387;48.112;8.616;2023-02-28T07:05:50;15.00;;;8.03;;
27744;SDS011;61387;48.112;8.616;2023-02-28T07:57:23;14.60;;;8.65;;
27744;SDS011;61387;48.112;8.616;2023-02-28T07:59:50;17.27;;;8.23;;
27744;SDS011;61387;48.112;8.616;2023-02-28T08:02:17;15.43;;;8.57;;
27744;SDS011;61387;48.112;8.616;2023-02-28T08:04:44;15.40;;;8.03;;
27744;SDS011;61387;48.112;8.616;2023-02-28T08:07:09;16.87;;;8.87;;
27744;SDS011;61387;48.112;8.616;2023-02-28T08:09:38;14.87;;;8.67;;
27744;SDS011;61387;48.112;8.616;2023-02-28T08:12:05;13.43;;;8.00;;
27744;SDS011;61387;48.112;8.616;2023-02-28T08:14:31;13.20;;;8.00;;
27744;SDS011;61387;48.112;8.616;2023-02-28T08:16:57;14.73;;;7.43;;
27744;SDS011;61387;48.112;8.616;2023-02-28T08:19:22;15.50;;;8.30;;
27744;SDS011;61387;48.112;8.616;2023-02-28T08:21:48;14.50;;;8.17;;
27744;SDS011;61387;48.112;8.616;2023-02-28T08:24:14;14.30;;;8.03;;
27744;SDS011;61387;48.112;8.616;2023-02-28T08:26:39;13.80;;;8.30;;
27744;SDS011;61387;48.112;8.616;2023-02-28T08:29:05;14.13;;;7.60;;
27744;SDS011;61387;48.112;8.616;2023-02-28T08:31:31;12.97;;;7.63;;
27744;SDS011;61387;48.112;8.616;2023-02-28T08:33:56;13.13;;;7.27;;
27744;SDS011;61387;48.112;8.616;2023-02-28T08:36:24;14.53;;;7.77;;
27744;SDS011;61387;48.112;8.616;2023-02-28T08:38:50;13.77;;;7.50;;
27744;SDS011;61387;48.112;8.616;2023-02-28T08:41:16;16.20;;;8.73;;
27744;SDS011;61387;48.112;8.616;2023-02-28T08:43:41;14.25;;;7.30;;
27744;SDS011;61387;48.112;8.616;2023-02-28T08:46:07;14.57;;;8.17;;
27744;SDS011;61387;48.112;8.616;2023-02-28T08:48:35;12.40;;;7.60;;
27744;SDS011;61387;48.112;8.616;2023-02-28T08:51:08;13.63;;;7.17;;
27744;SDS011;61387;48.112;8.616;2023-02-28T08:53:36;14.47;;;8.40;;
27744;SDS011;61387;48.112;8.616;2023-02-28T08:56:13;14.43;;;8.37;;
27744;SDS011;61387;48.112;8.616;2023-02-28T08:58:41;16.43;;;8.13;;
27744;SDS011;61387;48.112;8.616;2023-02-28T09:01:11;12.73;;;8.27;;
27744;SDS011;61387;48.112;8.616;2023-02-28T09:03:38;16.83;;;9.17;;
27744;SDS011;61387;48.112;8.616;2023-02-28T09:06:06;15.23;;;9.27;;
27744;SDS011;61387;48.112;8.616;2023-02-28T09:08:32;16.30;;;8.77;;
27744;SDS011;61387;48.112;8.616;2023-02-28T09:10:58;14.40;;;8.07;;
27744;SDS011;61387;48.112;8.616;2023-02-28T09:13:25;14.20;;;8.67;;
27744;SDS011;61387;48.112;8.616;2023-02-28T09:15:51;16.63;;;9.47;;
27744;SDS011;61387;48.112;8.616;2023-02-28T09:18:17;14.40;;;8.47;;
27744;SDS011;61387;48.112;8.616;2023-02-28T09:20:43;13.87;;;8.43;;
27744;SDS011;61387;48.112;8.616;2023-02-28T09:23:09;16.40;;;8.20;;
27744;SDS011;61387;48.112;8.616;2023-02-28T09:25:36;13.90;;;8.03;;
27744;SDS011;61387;48.112;8.616;2023-02-28T09:28:02;12.77;;;8.50;;
27744;SDS011;61387;48.112;8.616;2023-02-28T09:30:28;13.47;;;8.30;;
27744;SDS011;61387;48.112;8.616;2023-02-28T09:32:54;14.23;;;8.57;;
27744;SDS011;61387;48.112;8.616;2023-02-28T09:35:23;13.50;;;8.20;;
27744;SDS011;61387;48.112;8.616;2023-02-28T09:37:49;14.03;;;8.40;;
27744;SDS011;61387;48.112;8.616;2023-02-28T09:40:17;12.90;;;7.93;;
27744;SDS011;61387;48.112;8.616;2023-02-28T09:42:49;12.73;;;8.03;;
27744;SDS011;61387;48.112;8.616;2023-02-28T09:45:28;13.53;;;8.03;;
27744;SDS011;61387;48.112;8.616;2023-02-28T09:48:20;12.47;;;7.93;;
27744;SDS011;61387;48.112;8.616;2023-02-28T09:50:49;13.47;;;8.17;;
27744;SDS011;61387;48.112;8.616;2023-02-28T09:53:26;13.37;;;8.53;;
27744;SDS011;61387;48.112;8.616;2023-02-28T09:56:01;13.37;;;7.90;;
27744;SDS011;61387;48.112;8.616;2023-02-28T10:01:35;13.17;;;7.73;;
27744;SDS011;61387;48.112;8.616;2023-02-28T10:06:48;13.80;;;9.00;;
27744;SDS011;61387;48.112;8.616;2023-02-28T10:09:25;14.97;;;8.73;;
27744;SDS011;61387;48.112;8.616;2023-02-28T10:11:56;14.47;;;8.77;;
27744;SDS011;61387;48.112;8.616;2023-02-28T10:14:27;14.37;;;8.80;;
27744;SDS011;61387;48.112;8.616;2023-02-28T10:16:55;14.67;;;8.37;;
27744;SDS011;61387;48.112;8.616;2023-02-28T10:22:17;14.53;;;9.07;;
27744;SDS011;61387;48.112;8.616;2023-02-28T10:24:45;14.77;;;9.10;;
27744;SDS011;61387;48.112;8.616;2023-02-28T10:29:46;16.10;;;9.87;;
27744;SDS011;61387;48.112;8.616;2023-02-28T10:35:24;15.53;;;9.13;;
27744;SDS011;61387;48.112;8.616;2023-02-28T10:37:53;17.63;;;8.87;;
27744;SDS011;61387;48.112;8.616;2023-02-28T10:42:55;13.70;;;8.30;;
27744;SDS011;61387;48.112;8.616;2023-02-28T10:45:21;15.03;;;8.73;;
27744;SDS011;61387;48.112;8.616;2023-02-28T10:47:58;15.23;;;9.00;;
27744;SDS011;61387;48.112;8.616;2023-02-28T10:50:34;15.77;;;9.03;;
27744;SDS011;61387;48.112;8.616;2023-02-28T10:53:12;16.57;;;8.93;;
27744;SDS011;61387;48.112;8.616;2023-02-28T10:56:05;13.50;;;8.53;;
27744;SDS011;61387;48.112;8.616;2023-02-28T11:01:36;15.87;;;9.37;;
27744;SDS011;61387;48.112;8.616;2023-02-28T11:07:05;15.37;;;8.93;;
27744;SDS011;61387;48.112;8.616;2023-02-28T11:09:48;12.93;;;8.93;;
27744;SDS011;61387;48.112;8.616;2023-02-28T11:12:23;14.60;;;8.07;;
27744;SDS011;61387;48.112;8.616;2023-02-28T11:15:00;14.13;;;8.67;;
27744;SDS011;61387;48.112;8.616;2023-02-28T11:17:32;15.20;;;9.40;;
27744;SDS011;61387;48.112;8.616;2023-02-28T11:20:05;14.40;;;8.73;;
27744;SDS011;61387;48.112;8.616;2023-02-28T11:22:43;16.17;;;9.17;;
27744;SDS011;61387;48.112;8.616;2023-02-28T11:25:24;13.63;;;9.60;;
27744;SDS011;61387;48.112;8.616;2023-02-28T11:27:58;16.40;;;9.13;;
27744;SDS011;61387;48.112;8.616;2023-02-28T11:30:35;16.43;;;9.43;;
27744;SDS011;61387;48.112;8.616;2023-02-28T11:35:47;15.13;;;9.77;;
27744;SDS011;61387;48.112;8.616;2023-02-28T11:38:15;15.63;;;9.33;;
27744;SDS011;61387;48.112;8.616;2023-02-28T11:49:33;14.60;;;9.63;;
27744;SDS011;61387;48.112;8.616;2023-02-28T11:52:13;15.43;;;9.27;;
27744;SDS011;61387;48.112;8.616;2023-02-28T12:00:46;17.77;;;10.07;;
27744;SDS011;61387;48.112;8.616;2023-02-28T12:03:22;17.20;;;10.07;;
27744;SDS011;61387;48.112;8.616;2023-02-28T12:19:48;14.00;;;9.00;;
27744;SDS011;61387;48.112;8.616;2023-02-28T12:22:30;16.03;;;10.00;;
27744;SDS011;61387;48.112;8.616;2023-02-28T12:27:32;15.50;;;9.00;;
27744;SDS011;61387;48.112;8.616;2023-02-28T12:30:05;15.17;;;9.80;;
27744;SDS011;61387;48.112;8.616;2023-02-28T12:32:41;15.20;;;9.50;;
27744;SDS011;61387;48.112;8.616;2023-02-28T12:37:42;14.23;;;9.27;;
27744;SDS011;61387;48.112;8.616;2023-02-28T12:40:19;14.40;;;9.53;;
27744;SDS011;61387;48.112;8.616;2023-02-28T12:42:49;18.77;;;10.07;;
27744;SDS011;61387;48.112;8.616;2023-02-28T12:45:22;16.37;;;9.93;;
27744;SDS011;61387;48.112;8.616;2023-02-28T12:47:55;18.13;;;11.20;;
27744;SDS011;61387;48.112;8.616;2023-02-28T12:50:25;15.23;;;9.50;;
27744;SDS011;61387;48.112;8.616;2023-02-28T12:55:42;17.63;;;9.20;;
27744;SDS011;61387;48.112;8.616;2023-02-28T13:06:41;15.63;;;9.50;;
27744;SDS011;61387;48.112;8.616;2023-02-28T13:09:21;13.93;;;9.13;;
27744;SDS011;61387;48.112;8.616;2023-02-28T13:11:47;17.90;;;9.67;;
27744;SDS011;61387;48.112;8.616;2023-02-28T13:14:29;16.03;;;9.63;;
27744;SDS011;61387;48.112;8.616;2023-02-28T13:19:34;15.07;;;9.80;;
27744;SDS011;61387;48.112;8.616;2023-02-28T13:22:02;15.23;;;9.00;;
27744;SDS011;61387;48.112;8.616;2023-02-28T13:24:40;18.67;;;9.00;;
27744;SDS011;61387;48.112;8.616;2023-02-28T13:27:17;19.73;;;9.53;;
27744;SDS011;61387;48.112;8.616;2023-02-28T13:29:51;14.43;;;9.47;;
27744;SDS011;61387;48.112;8.616;2023-02-28T13:32:34;14.67;;;9.43;;
27744;SDS011;61387;48.112;8.616;2023-02-28T13:37:37;14.87;;;8.53;;
27744;SDS011;61387;48.112;8.616;2023-02-28T13:43:01;14.23;;;9.00;;
27744;SDS011;61387;48.112;8.616;2023-02-28T13:45:28;18.10;;;9.23;;
27744;SDS011;61387;48.112;8.616;2023-02-28T13:50:44;31.93;;;11.70;;
27744;SDS011;61387;48.112;8.616;2023-02-28T14:01:31;17.43;;;9.63;;
27744;SDS011;61387;48.112;8.616;2023-02-28T14:04:53;15.30;;;9.73;;
27744;SDS011;61387;48.112;8.616;2023-02-28T14:07:18;14.17;;;9.20;;
27744;SDS011;61387;48.112;8.616;2023-02-28T14:10:01;15.40;;;10.50;;
27744;SDS011;61387;48.112;8.616;2023-02-28T14:21:16;17.33;;;10.53;;
27744;SDS011;61387;48.112;8.616;2023-02-28T14:30:18;14.57;;;9.33;;
27744;SDS011;61387;48.112;8.616;2023-02-28T14:32:58;13.80;;;8.47;;
27744;SDS011;61387;48.112;8.616;2023-02-28T14:35:40;20.13;;;9.70;;
27744;SDS011;61387;48.112;8.616;2023-02-28T14:38:18;13.97;;;8.30;;
27744;SDS011;61387;48.112;8.616;2023-02-28T14:40:49;14.27;;;8.57;;
27744;SDS011;61387;48.112;8.616;2023-02-28T14:43:21;18.30;;;9.60;;
27744;SDS011;61387;48.112;8.616;2023-02-28T14:45:49;14.33;;;9.03;;
27744;SDS011;61387;48.112;8.616;2023-02-28T14:48:26;19.50;;;9.60;;
27744;SDS011;61387;48.112;8.616;2023-02-28T14:50:56;16.37;;;9.50;;
27744;SDS011;61387;48.112;8.616;2023-02-28T14:53:24;14.27;;;8.87;;
27744;SDS011;61387;48.112;8.616;2023-02-28T14:55:52;13.53;;;9.13;;
27744;SDS011;61387;48.112;8.616;2023-02-28T14:58:28;14.20;;;9.67;;
27744;SDS011;61387;48.112;8.616;2023-02-28T15:00:56;17.83;;;9.63;;
27744;SDS011;61387;48.112;8.616;2023-02-28T15:05:59;14.43;;;8.90;;
27744;SDS011;61387;48.112;8.616;2023-02-28T15:08:27;13.10;;;9.10;;
27744;SDS011;61387;48.112;8.616;2023-02-28T15:13:43;18.80;;;9.63;;
27744;SDS011;61387;48.112;8.616;2023-02-28T15:16:22;26.77;;;10.70;;
27744;SDS011;61387;48.112;8.616;2023-02-28T15:19:07;13.57;;;8.80;;
27744;SDS011;61387;48.112;8.616;2023-02-28T15:22:16;14.33;;;9.23;;
27744;SDS011;61387;48.112;8.616;2023-02-28T15:24:48;16.73;;;9.20;;
27744;SDS011;61387;48.112;8.616;2023-02-28T15:27:20;18.13;;;10.43;;
27744;SDS011;61387;48.112;8.616;2023-02-28T15:29:49;14.33;;;10.00;;
27744;SDS011;61387;48.112;8.616;2023-02-28T15:32:30;15.47;;;9.73;;
27744;SDS011;61387;48.112;8.616;2023-02-28T15:34:57;15.90;;;8.90;;
27744;SDS011;61387;48.112;8.616;2023-02-28T15:37:40;12.93;;;9.07;;
27744;SDS011;61387;48.112;8.616;2023-02-28T15:42:42;13.87;;;9.13;;
27744;SDS011;61387;48.112;8.616;2023-02-28T15:45:28;13.83;;;9.40;;
27744;SDS011;61387;48.112;8.616;2023-02-28T15:48:02;15.63;;;9.20;;
27744;SDS011;61387;48.112;8.616;2023-02-28T15:50:28;14.17;;;9.00;;
27744;SDS011;61387;48.112;8.616;2023-02-28T15:52:54;14.47;;;9.57;;
27744;SDS011;61387;48.112;8.616;2023-02-28T15:55:21;13.30;;;8.67;;
27744;SDS011;61387;48.112;8.616;2023-02-28T15:57:52;14.70;;;9.10;;
27744;SDS011;61387;48.112;8.616;2023-02-28T16:00:21;16.33;;;9.93;;
27744;SDS011;61387;48.112;8.616;2023-02-28T16:02:48;15.83;;;9.70;;
27744;SDS011;61387;48.112;8.616;2023-02-28T16:05:20;12.07;;;8.37;;
27744;SDS011;61387;48.112;8.616;2023-02-28T16:07:52;16.63;;;9.50;;
27744;SDS011;61387;48.112;8.616;2023-02-28T16:10:22;16.10;;;10.47;;
27744;SDS011;61387;48.112;8.616;2023-02-28T16:12:52;17.13;;;10.40;;
27744;SDS011;61387;48.112;8.616;2023-02-28T16:15:20;13.03;;;9.17;;
27744;SDS011;61387;48.112;8.616;2023-02-28T16:17:51;15.40;;;9.37;;
27744;SDS011;61387;48.112;8.616;2023-02-28T16:20:19;15.07;;;9.97;;
27744;SDS011;61387;48.112;8.616;2023-02-28T16:22:46;13.50;;;9.13;;
27744;SDS011;61387;48.112;8.616;2023-02-28T16:25:13;15.40;;;9.70;;
27744;SDS011;61387;48.112;8.616;2023-02-28T16:27:39;12.47;;;9.17;;
27744;SDS011;61387;48.112;8.616;2023-02-28T16:30:06;13.40;;;9.27;;
27744;SDS011;61387;48.112;8.616;2023-02-28T16:32:35;20.10;;;10.47;;
27744;SDS011;61387;48.112;8.616;2023-02-28T16:35:01;15.37;;;9.30;;
27744;SDS011;61387;48.112;8.616;2023-02-28T16:37:27;15.25;;;10.85;;
27744;SDS011;61387;48.112;8.616;2023-02-28T16:39:53;13.67;;;9.80;;
27744;SDS011;61387;48.112;8.616;2023-02-28T16:42:25;15.00;;;9.37;;
27744;SDS011;61387;48.112;8.616;2023-02-28T16:44:53;14.67;;;9.73;;
27744;SDS011;61387;48.112;8.616;2023-02-28T16:47:20;14.27;;;9.77;;
27744;SDS011;61387;48.112;8.616;2023-02-28T16:49:46;12.63;;;9.27;;
27744;SDS011;61387;48.112;8.616;2023-02-28T16:52:12;14.83;;;8.63;;
27744;SDS011;61387;48.112;8.616;2023-02-28T16:54:38;16.00;;;9.50;;
27744;SDS011;61387;48.112;8.616;2023-02-28T16:57:05;27.93;;;11.17;;
27744;SDS011;61387;48.112;8.616;2023-02-28T16:59:32;14.13;;;9.10;;
27744;SDS011;61387;48.112;8.616;2023-02-28T17:01:57;14.83;;;10.23;;
27744;SDS011;61387;48.112;8.616;2023-02-28T17:04:26;14.40;;;9.67;;
27744;SDS011;61387;48.112;8.616;2023-02-28T17:06:52;13.53;;;9.20;;
27744;SDS011;61387;48.112;8.616;2023-02-28T17:09:22;16.57;;;10.63;;
27744;SDS011;61387;48.112;8.616;2023-02-28T17:11:48;15.60;;;10.27;;
27744;SDS011;61387;48.112;8.616;2023-02-28T17:14:14;15.40;;;10.67;;
27744;SDS011;61387;48.112;8.616;2023-02-28T17:16:40;19.73;;;10.37;;
27744;SDS011;61387;48.112;8.616;2023-02-28T17:19:07;17.60;;;10.63;;
27744;SDS011;61387;48.112;8.616;2023-02-28T17:21:36;16.87;;;10.23;;
27744;SDS011;61387;48.112;8.616;2023-02-28T17:24:02;17.13;;;10.37;;
27744;SDS011;61387;48.112;8.616;2023-02-28T17:26:28;17.17;;;11.00;;
27744;SDS011;61387;48.112;8.616;2023-02-28T17:28:54;16.95;;;10.70;;
27744;SDS011;61387;48.112;8.616;2023-02-28T17:31:22;16.93;;;10.87;;
27744;SDS011;61387;48.112;8.616;2023-02-28T17:33:48;17.27;;;10.40;;
27744;SDS011;61387;48.112;8.616;2023-02-28T17:36:14;21.20;;;10.23;;
27744;SDS011;61387;48.112;8.616;2023-02-28T17:38:42;19.27;;;11.23;;
27744;SDS011;61387;48.112;8.616;2023-02-28T17:41:09;17.58;;;11.52;;
27744;SDS011;61387;48.112;8.616;2023-02-28T17:43:36;42.73;;;25.00;;
27744;SDS011;61387;48.112;8.616;2023-02-28T17:46:02;40.97;;;20.50;;
27744;SDS011;61387;48.112;8.616;2023-02-28T17:48:30;24.93;;;14.07;;
27744;SDS011;61387;48.112;8.616;2023-02-28T17:50:55;20.27;;;11.30;;
27744;SDS011;61387;48.112;8.616;2023-02-28T17:53:21;17.07;;;10.40;;
27744;SDS011;61387;48.112;8.616;2023-02-28T17:55:48;14.83;;;9.70;;
27744;SDS011;61387;48.112;8.616;2023-02-28T17:58:14;18.57;;;10.30;;
27744;SDS011;61387;48.112;8.616;2023-02-28T18:00:40;16.40;;;10.57;;